.
WxDataArchive / Data Records for 2012-02-06
2012-02-05 February 2012 2012-02-07

Data Records for Monday, 06 February 2012

Time	Temp	Chill	HIndex	Humid	Dewpt	 Wind 	HiWind	WindDir	Rain 	Barom 
-----	----	-----	------	-----	-----	------	------	-------	-----	----- 
00:00	26.3	26.3	26.3	89	23.5	0	0	---	0.00	30.245 
00:05	26.3	26.3	26.3	90	23.8	0	0	---	0.00	30.245 
00:10	26.4	26.4	26.4	90	23.9	0	0	---	0.00	30.245 
00:15	26.4	26.4	26.4	90	23.9	0	0	---	0.00	30.246 
00:20	26.3	26.3	26.3	90	23.8	0	0	---	0.00	30.246 
00:25	26.0	26.0	26.0	90	23.5	0	0	---	0.00	30.246 
00:30	25.7	25.7	25.7	90	23.2	0	0	---	0.00	30.244 
00:35	25.4	25.4	25.4	90	22.9	0	0	---	0.00	30.244 
00:40	25.1	25.1	25.1	90	22.6	0	0	---	0.00	30.244 
00:45	24.8	24.8	24.8	90	22.3	0	0	---	0.00	30.239 
00:50	24.7	24.7	24.7	90	22.2	0	0	---	0.00	30.239 
00:55	24.4	24.4	24.4	90	21.9	0	0	---	0.00	30.239 
01:00	24.4	24.4	24.4	90	21.9	0	0	---	0.00	30.236 
01:05	24.2	24.2	24.2	90	21.7	0	0	---	0.00	30.236 
01:10	24.1	24.1	24.1	90	21.6	0	0	---	0.00	30.236 
01:15	23.9	23.9	23.9	90	21.4	0	0	---	0.00	30.231 
01:20	23.8	23.8	23.8	90	21.3	0	0	---	0.00	30.231 
01:25	23.6	23.6	23.6	90	21.1	0	0	---	0.00	30.231 
01:30	23.6	23.6	23.6	90	21.1	0	0	---	0.00	30.227 
01:35	23.8	23.8	23.8	91	21.6	0	0	---	0.00	30.227 
01:40	23.8	23.8	23.8	91	21.6	0	0	---	0.00	30.227 
01:45	23.6	23.6	23.6	90	21.1	0	0	---	0.00	30.227 
01:50	23.3	23.3	23.3	90	20.8	0	0	---	0.00	30.227 
01:55	23.2	23.2	23.2	91	21.0	0	0	---	0.00	30.227 
02:00	23.2	23.2	23.2	91	21.0	0	0	---	0.00	30.226 
02:05	23.3	23.3	23.3	91	21.1	0	0	---	0.00	30.226 
02:10	23.3	23.3	23.3	91	21.1	0	0	---	0.00	30.226 
02:15	23.5	23.5	23.5	91	21.3	0	0	---	0.00	30.222 
02:20	23.8	23.8	23.8	91	21.6	0	0	---	0.00	30.222 
02:25	24.2	24.2	24.2	92	22.2	0	0	---	0.00	30.222 
02:30	24.2	24.2	24.2	92	22.2	0	0	---	0.00	30.227 
02:35	24.4	24.4	24.4	92	22.4	0	0	---	0.00	30.227 
02:40	24.5	24.5	24.5	92	22.5	0	0	---	0.00	30.227 
02:45	24.4	24.4	24.4	92	22.4	0	0	---	0.00	30.229 
02:50	24.5	24.5	24.5	92	22.5	0	0	---	0.00	30.229 
02:55	24.7	24.7	24.7	92	22.7	0	0	---	0.00	30.229 
03:00	25.1	25.1	25.1	92	23.1	0	0	---	0.00	30.229 
03:05	25.6	25.6	25.6	92	23.6	0	0	---	0.00	30.229 
03:10	25.8	25.8	25.8	92	23.8	0	0	---	0.00	30.229 
03:15	25.7	25.7	25.7	92	23.7	0	0	---	0.00	30.227 
03:20	25.4	25.4	25.4	92	23.4	0	0	---	0.00	30.227 
03:25	25.1	25.1	25.1	92	23.1	0	0	---	0.00	30.227 
03:30	24.8	24.8	24.8	92	22.8	0	0	---	0.00	30.228 
03:35	24.5	24.5	24.5	92	22.5	0	0	---	0.00	30.228 
03:40	24.1	24.1	24.1	92	22.1	0	0	---	0.00	30.228 
03:45	23.8	23.8	23.8	92	21.8	0	0	---	0.00	30.230 
03:50	23.6	23.6	23.6	92	21.6	0	0	---	0.00	30.230 
03:55	23.5	23.5	23.5	92	21.5	0	0	---	0.00	30.230 
04:00	23.2	23.2	23.2	92	21.2	0	0	---	0.00	30.230 
04:05	23.2	23.2	23.2	92	21.2	0	0	---	0.00	30.230 
04:10	23.0	23.0	23.0	92	21.0	0	0	---	0.00	30.230 
04:15	22.7	22.7	22.7	92	20.7	0	0	---	0.00	30.231 
04:20	22.5	22.5	22.5	92	20.5	0	0	---	0.00	30.231 
04:25	22.5	22.5	22.5	92	20.5	0	0	---	0.00	30.231 
04:30	22.4	22.4	22.4	92	20.4	0	0	---	0.00	30.231 
04:35	22.2	22.2	22.2	92	20.2	0	0	---	0.00	30.231 
04:40	22.2	22.2	22.2	92	20.2	0	0	---	0.00	30.231 
04:45	22.2	22.2	22.2	92	20.2	0	0	---	0.00	30.228 
04:50	22.1	22.1	22.1	92	20.1	0	0	---	0.00	30.228 
04:55	21.9	21.9	21.9	92	19.9	0	0	---	0.00	30.228 
05:00	21.8	21.8	21.8	92	19.8	0	0	---	0.00	30.228 
05:05	21.8	21.8	21.8	92	19.8	0	0	---	0.00	30.228 
05:10	21.6	21.6	21.6	92	19.6	0	0	---	0.00	30.228 
05:15	21.6	21.6	21.6	92	19.6	0	0	---	0.00	30.231 
05:20	21.6	21.6	21.6	92	19.6	0	0	---	0.00	30.231 
05:25	21.4	21.4	21.4	92	19.4	0	0	---	0.00	30.231 
05:30	21.3	21.3	21.3	92	19.3	0	0	---	0.00	30.229 
05:35	21.3	21.3	21.3	92	19.3	0	0	---	0.00	30.229 
05:40	21.3	21.3	21.3	92	19.3	0	0	---	0.00	30.229 
05:45	21.3	21.3	21.3	92	19.3	0	0	---	0.00	30.221 
05:50	21.3	21.3	21.3	92	19.3	0	0	---	0.00	30.221 
05:55	21.4	21.4	21.4	92	19.4	0	0	---	0.00	30.221 
06:00	21.3	21.3	21.3	92	19.3	0	0	---	0.00	30.218 
06:05	21.1	21.1	21.1	92	19.1	0	0	---	0.00	30.218 
06:10	21.1	21.1	21.1	92	19.1	0	0	---	0.00	30.218 
06:15	21.0	21.0	21.0	92	19.0	0	0	---	0.00	30.224 
06:20	20.6	20.6	20.6	92	18.7	0	0	---	0.00	30.224 
06:25	20.5	20.5	20.5	92	18.6	0	0	---	0.00	30.224 
06:30	20.5	20.5	20.5	92	18.6	0	0	---	0.00	30.223 
06:35	20.5	20.5	20.5	92	18.6	0	0	---	0.00	30.223 
06:40	20.6	20.6	20.6	92	18.7	0	0	---	0.00	30.223 
06:45	20.6	20.6	20.6	92	18.7	0	0	---	0.00	30.223 
06:50	20.8	20.8	20.8	92	18.9	0	0	---	0.00	30.223 
06:55	20.6	20.6	20.6	92	18.7	0	0	---	0.00	30.223 
07:00	20.5	20.5	20.5	92	18.6	0	0	---	0.00	30.224 
07:05	20.5	20.5	20.5	92	18.6	0	0	---	0.00	30.224 
07:10	20.5	20.5	20.5	92	18.6	0	0	---	0.00	30.224 
07:15	20.5	20.5	20.5	92	18.6	0	0	---	0.00	30.228 
07:20	20.3	20.3	20.3	92	18.4	0	0	---	0.00	30.228 
07:25	20.3	20.3	20.3	92	18.4	0	0	---	0.00	30.228 
07:30	20.3	20.3	20.3	92	18.4	0	0	---	0.00	30.227 
07:35	20.5	20.5	20.5	92	18.6	0	0	---	0.00	30.227 
07:40	20.5	20.5	20.5	92	18.6	0	0	---	0.00	30.227 
07:45	20.5	20.5	20.5	92	18.6	0	0	---	0.00	30.226 
07:50	20.5	20.5	20.5	92	18.6	0	0	---	0.00	30.226 
07:55	20.5	20.5	20.5	92	18.6	0	0	---	0.00	30.226 
08:00	20.5	20.5	20.5	92	18.6	0	0	---	0.00	30.225 
08:05	20.5	20.5	20.5	92	18.6	0	0	---	0.00	30.225 
08:10	20.3	20.3	20.3	92	18.4	0	0	---	0.00	30.225 
08:15	20.3	20.3	20.3	92	18.4	0	0	---	0.00	30.227 
08:20	20.3	20.3	20.3	92	18.4	0	0	---	0.00	30.227 
08:25	20.6	20.6	20.6	92	18.7	0	0	---	0.00	30.227 
08:30	21.0	21.0	21.0	93	19.3	0	0	---	0.00	30.226 
08:35	21.6	21.6	21.6	93	19.9	0	0	---	0.00	30.226 
08:40	22.4	22.4	22.4	93	20.7	0	0	---	0.00	30.226 
08:45	23.2	23.2	23.2	94	21.7	0	0	---	0.00	30.224 
08:50	24.2	24.2	24.2	95	23.0	0	0	---	0.00	30.224 
08:55	25.4	25.4	25.4	95	24.2	0	0	---	0.00	30.224 
09:00	26.1	26.1	26.1	94	24.6	0	0	---	0.00	30.228 
09:05	26.7	26.7	26.7	94	25.2	0	1	270	0.00	30.228 
09:10	27.3	27.3	27.3	94	25.8	0	0	---	0.00	30.228 
09:15	27.9	27.9	27.9	94	26.4	0	1	270	0.00	30.230 
09:20	28.5	28.5	28.5	94	27.0	0	1	270	0.00	30.230 
09:25	29.4	29.4	29.4	95	28.1	0	1	270	0.00	30.230 
09:30	30.1	30.1	30.1	95	28.8	0	2	270	0.00	30.229 
09:35	30.9	30.9	30.9	95	29.6	0	3	270	0.00	30.229 
09:40	31.5	31.5	31.5	95	30.2	0	2	270	0.00	30.229 
09:45	31.8	31.8	31.8	95	30.5	1	3	270	0.00	30.233 
09:50	31.9	31.9	31.9	94	30.4	1	3	270	0.00	30.233 
09:55	32.1	32.1	32.1	94	30.6	0	2	270	0.00	30.233 
10:00	32.1	32.1	32.1	94	30.6	1	3	270	0.01	30.232 
10:05	32.1	32.1	32.1	94	30.6	1	3	270	0.00	30.232 
10:10	32.2	32.2	32.2	94	30.7	1	3	270	0.00	30.232 
10:15	32.4	32.4	32.4	94	30.9	1	2	270	0.00	30.230 
10:20	32.7	32.7	32.7	94	31.2	1	3	270	0.00	30.230 
10:25	32.9	32.9	32.9	93	31.1	1	2	270	0.00	30.230 
10:30	33.1	33.1	33.1	93	31.3	1	4	270	0.00	30.228 
10:35	33.4	33.4	33.4	92	31.3	1	3	270	0.00	30.228 
10:40	33.5	33.5	33.5	92	31.4	2	4	270	0.00	30.228 
10:45	33.8	33.8	33.8	92	31.7	1	3	248	0.00	30.223 
10:50	34.0	34.0	34.0	91	31.7	2	6	270	0.00	30.223 
10:55	34.1	34.1	34.1	90	31.5	1	5	248	0.00	30.223 
11:00	34.3	34.3	34.3	90	31.7	2	6	248	0.00	30.216 
11:05	34.4	34.4	34.4	89	31.5	2	7	248	0.00	30.216 
11:10	34.6	34.6	34.6	89	31.7	1	4	248	0.00	30.216 
11:15	34.9	34.9	34.9	89	32.0	1	6	248	0.00	30.214 
11:20	35.0	35.0	35.0	88	31.8	2	6	270	0.00	30.214 
11:25	35.3	35.3	35.3	88	32.1	1	5	248	0.00	30.214 
11:30	35.6	35.6	35.6	88	32.4	2	5	248	0.00	30.206 
11:35	35.6	35.6	35.6	87	32.1	1	4	248	0.00	30.206 
11:40	35.8	35.8	35.8	87	32.3	2	4	248	0.00	30.206 
11:45	35.9	35.9	35.9	87	32.4	1	5	248	0.00	30.204 
11:50	35.9	35.9	35.9	86	32.1	3	7	248	0.00	30.204 
11:55	35.9	35.9	35.9	86	32.1	2	5	248	0.00	30.204 
12:00	36.0	36.0	36.0	86	32.2	2	5	248	0.00	30.198 
12:05	36.2	36.2	36.2	86	32.4	2	5	270	0.00	30.198 
12:10	36.3	36.3	36.3	86	32.5	2	4	248	0.00	30.198 
12:15	36.8	36.8	36.8	86	33.0	1	3	248	0.00	30.196 
12:20	37.0	37.0	37.0	84	32.6	1	5	248	0.00	30.196 
12:25	37.3	37.3	37.3	83	32.6	1	4	248	0.00	30.196 
12:30	37.3	37.3	37.3	82	32.3	3	7	248	0.00	30.190 
12:35	37.6	37.6	37.6	81	32.3	2	6	248	0.00	30.190 
12:40	37.5	37.5	37.5	80	31.9	3	9	248	0.00	30.190 
12:45	37.6	37.6	37.6	79	31.7	2	7	248	0.00	30.182 
12:50	37.8	37.8	37.8	77	31.2	3	7	248	0.00	30.182 
12:55	37.9	37.9	37.9	76	31.0	3	7	248	0.00	30.182 
13:00	38.0	38.0	38.0	76	31.1	2	6	248	0.00	30.178 
13:05	38.2	38.2	38.2	76	31.3	2	5	270	0.00	30.178 
13:10	38.6	38.6	38.6	75	31.4	2	4	248	0.00	30.178 
13:15	38.9	38.9	38.9	74	31.3	1	4	248	0.00	30.168 
13:20	39.2	39.2	39.2	72	30.9	3	7	248	0.00	30.168 
13:25	39.5	39.5	39.5	72	31.2	2	5	248	0.00	30.168 
13:30	39.8	39.8	39.8	71	31.2	2	5	248	0.00	30.163 
13:35	40.1	40.1	40.1	70	31.1	3	5	248	0.00	30.163 
13:40	40.3	40.3	40.3	69	31.0	3	5	248	0.00	30.163 
13:45	40.5	40.5	40.5	68	30.8	2	5	248	0.00	30.152 
13:50	40.6	40.6	40.6	68	30.9	3	7	248	0.00	30.152 
13:55	40.8	40.8	40.8	68	31.1	2	6	225	0.00	30.152 
14:00	41.1	41.1	41.1	67	31.0	3	7	270	0.00	30.147 
14:05	41.1	41.1	41.1	67	31.0	3	7	248	0.00	30.147 
14:10	41.1	41.1	41.1	67	31.0	3	9	248	0.00	30.147 
14:15	41.3	41.3	41.3	68	31.5	2	6	248	0.00	30.139 
14:20	41.5	41.5	41.5	67	31.4	3	7	248	0.00	30.139 
14:25	41.6	41.6	41.6	68	31.8	2	6	248	0.00	30.139 
14:30	41.8	41.8	41.8	69	32.4	2	5	248	0.00	30.133 
14:35	41.9	41.9	41.9	68	32.1	2	5	248	0.00	30.133 
14:40	41.9	41.9	41.9	66	31.4	3	6	248	0.00	30.133 
14:45	41.8	41.8	41.8	67	31.7	3	5	270	0.00	30.130 
14:50	41.8	41.8	41.8	67	31.7	3	6	248	0.00	30.130 
14:55	41.9	41.9	41.9	68	32.1	3	6	248	0.00	30.130 
15:00	41.9	41.9	41.9	68	32.1	3	5	248	0.00	30.130 
15:05	41.8	41.8	41.8	68	32.0	3	5	248	0.00	30.130 
15:10	41.8	41.8	41.8	69	32.4	2	3	248	0.00	30.130 
15:15	41.9	41.9	41.9	68	32.1	3	7	270	0.00	30.130 
15:20	42.1	42.1	42.1	69	32.7	3	7	248	0.00	30.130 
15:25	42.1	42.1	42.1	69	32.7	3	5	292	0.00	30.130 
15:30	41.8	39.4	41.8	68	32.0	4	6	270	0.00	30.123 
15:35	41.8	41.8	41.8	69	32.4	3	6	248	0.00	30.123 
15:40	41.9	41.9	41.9	68	32.1	3	7	270	0.00	30.123 
15:45	42.2	42.2	42.2	67	32.0	3	5	248	0.00	30.120 
15:50	42.2	42.2	42.2	67	32.0	3	5	248	0.00	30.120 
15:55	42.1	42.1	42.1	66	31.6	3	6	248	0.00	30.120 
16:00	41.9	41.9	41.9	66	31.4	3	6	270	0.00	30.123 
16:05	41.8	41.8	41.8	66	31.3	3	7	248	0.00	30.123 
16:10	41.9	41.9	41.9	67	31.8	2	4	248	0.00	30.123 
16:15	41.9	41.9	41.9	68	32.1	2	5	248	0.00	30.123 
16:20	41.5	41.5	41.5	68	31.7	3	6	248	0.00	30.123 
16:25	40.9	40.9	40.9	69	31.5	2	5	248	0.00	30.123 
16:30	40.6	40.6	40.6	71	31.9	2	5	270	0.00	30.129 
16:35	40.8	40.8	40.8	69	31.4	2	5	270	0.00	30.129 
16:40	40.5	40.5	40.5	72	32.2	3	6	270	0.00	30.129 
16:45	40.3	40.3	40.3	73	32.3	2	5	248	0.00	30.130 
16:50	40.2	40.2	40.2	73	32.2	2	5	270	0.00	30.130 
16:55	40.2	40.2	40.2	74	32.6	1	4	248	0.00	30.130 
17:00	39.8	39.8	39.8	73	31.9	3	11	270	0.00	30.133 
17:05	39.3	39.3	39.3	74	31.7	2	7	270	0.00	30.133 
17:10	39.1	39.1	39.1	75	31.9	2	5	292	0.00	30.133 
17:15	38.9	38.9	38.9	76	32.0	2	4	248	0.00	30.133 
17:20	38.6	38.6	38.6	76	31.7	2	4	248	0.00	30.133 
17:25	38.2	38.2	38.2	77	31.6	2	5	248	0.00	30.133 
17:30	37.9	37.9	37.9	77	31.3	3	6	270	0.00	30.137 
17:35	37.5	37.5	37.5	77	31.0	2	4	270	0.00	30.137 
17:40	37.2	37.2	37.2	78	31.0	2	4	248	0.00	30.137 
17:45	36.9	36.9	36.9	79	31.0	1	3	248	0.00	30.137 
17:50	36.8	36.8	36.8	79	30.9	0	3	248	0.00	30.137 
17:55	36.5	36.5	36.5	80	30.9	2	4	248	0.00	30.137 
18:00	36.2	36.2	36.2	80	30.6	2	4	248	0.00	30.141 
18:05	35.9	35.9	35.9	81	30.6	2	4	248	0.00	30.141 
18:10	35.8	35.8	35.8	81	30.6	2	5	248	0.00	30.141 
18:15	35.5	35.5	35.5	81	30.3	1	3	248	0.00	30.140 
18:20	35.3	35.3	35.3	82	30.4	1	3	248	0.00	30.140 
18:25	35.2	35.2	35.2	82	30.3	1	4	248	0.00	30.140 
18:30	35.0	35.0	35.0	82	30.1	1	2	248	0.00	30.141 
18:35	34.9	34.9	34.9	83	30.3	0	2	248	0.00	30.141 
18:40	34.7	34.7	34.7	83	30.1	1	3	248	0.00	30.141 
18:45	34.6	34.6	34.6	83	30.0	1	4	248	0.00	30.141 
18:50	34.4	34.4	34.4	83	29.8	1	3	248	0.00	30.141 
18:55	34.3	34.3	34.3	84	30.0	1	3	248	0.00	30.141 
19:00	34.1	34.1	34.1	84	29.8	1	3	248	0.00	30.143 
19:05	34.0	34.0	34.0	84	29.7	1	4	225	0.00	30.143 
19:10	33.8	33.8	33.8	84	29.5	1	3	225	0.00	30.143 
19:15	33.7	33.7	33.7	84	29.4	1	5	225	0.00	30.146 
19:20	33.5	33.5	33.5	84	29.2	2	4	248	0.00	30.146 
19:25	33.4	33.4	33.4	84	29.1	2	5	248	0.00	30.146 
19:30	33.2	33.2	33.2	84	28.9	1	3	248	0.00	30.149 
19:35	33.1	33.1	33.1	84	28.8	1	3	248	0.00	30.149 
19:40	32.9	32.9	32.9	84	28.6	1	2	248	0.00	30.149 
19:45	32.9	32.9	32.9	84	28.6	1	2	248	0.00	30.149 
19:50	32.9	32.9	32.9	84	28.6	1	4	248	0.00	30.149 
19:55	33.1	33.1	33.1	85	29.1	1	6	225	0.00	30.149 
20:00	33.1	33.1	33.1	85	29.1	1	2	225	0.00	30.142 
20:05	33.1	33.1	33.1	84	28.8	1	2	248	0.00	30.142 
20:10	33.1	33.1	33.1	85	29.1	1	3	248	0.00	30.142 
20:15	33.1	33.1	33.1	85	29.1	1	5	248	0.00	30.139 
20:20	32.9	32.9	32.9	84	28.6	2	4	270	0.00	30.139 
20:25	32.8	32.8	32.8	84	28.5	2	4	270	0.00	30.139 
20:30	32.5	32.5	32.5	84	28.2	2	5	248	0.00	30.137 
20:35	32.4	32.4	32.4	84	28.1	2	5	248	0.00	30.137 
20:40	32.2	32.2	32.2	84	27.9	1	5	270	0.00	30.137 
20:45	32.1	32.1	32.1	84	27.8	0	2	270	0.00	30.138 
20:50	31.9	31.9	31.9	84	27.6	1	3	270	0.00	30.138 
20:55	31.9	31.9	31.9	84	27.6	2	3	270	0.00	30.138 
21:00	31.8	31.8	31.8	84	27.5	3	5	248	0.00	30.140 
21:05	31.8	31.8	31.8	85	27.8	2	4	270	0.00	30.140 
21:10	31.8	31.8	31.8	85	27.8	2	4	248	0.00	30.140 
21:15	31.8	31.8	31.8	85	27.8	1	4	248	0.00	30.142 
21:20	31.8	31.8	31.8	84	27.5	2	5	270	0.00	30.142 
21:25	31.8	31.8	31.8	84	27.5	2	6	270	0.00	30.142 
21:30	31.8	31.8	31.8	84	27.5	1	3	270	0.00	30.144 
21:35	31.9	31.9	31.9	84	27.6	2	5	248	0.00	30.144 
21:40	31.9	31.9	31.9	85	27.9	1	3	292	0.00	30.144 
21:45	31.9	31.9	31.9	84	27.6	1	3	270	0.00	30.139 
21:50	31.9	31.9	31.9	85	27.9	1	3	270	0.00	30.139 
21:55	31.9	31.9	31.9	85	27.9	2	4	248	0.00	30.139 
22:00	31.8	31.8	31.8	84	27.5	3	6	248	0.00	30.144 
22:05	31.6	31.6	31.6	84	27.3	3	7	270	0.00	30.144 
22:10	31.6	31.6	31.6	84	27.3	3	5	248	0.00	30.144 
22:15	31.6	31.6	31.6	84	27.3	2	4	270	0.00	30.146 
22:20	31.6	31.6	31.6	84	27.3	2	5	270	0.00	30.146 
22:25	31.5	31.5	31.5	84	27.2	2	5	270	0.00	30.146 
22:30	31.5	31.5	31.5	84	27.2	2	4	270	0.00	30.147 
22:35	31.5	31.5	31.5	84	27.2	2	4	225	0.00	30.147 
22:40	31.6	31.6	31.6	84	27.3	1	3	248	0.00	30.147 
22:45	31.6	31.6	31.6	84	27.3	1	3	248	0.00	30.148 
22:50	31.6	31.6	31.6	84	27.3	2	4	248	0.00	30.148 
22:55	31.5	31.5	31.5	84	27.2	2	5	270	0.00	30.148 
23:00	31.5	31.5	31.5	84	27.2	2	4	270	0.00	30.153 
23:05	31.3	31.3	31.3	84	27.0	2	4	315	0.00	30.153 
23:10	31.2	31.2	31.2	84	26.9	2	5	248	0.00	30.153 
23:15	31.2	31.2	31.2	84	26.9	2	4	248	0.00	30.159 
23:20	31.2	31.2	31.2	84	26.9	3	4	270	0.00	30.159 
23:25	31.2	31.2	31.2	84	26.9	3	4	248	0.00	30.159 
23:30	31.2	31.2	31.2	84	26.9	2	4	270	0.00	30.164 
23:35	31.2	31.2	31.2	84	26.9	2	4	248	0.00	30.164 
23:40	31.2	31.2	31.2	84	26.9	2	5	248	0.00	30.164 
23:45	31.2	31.2	31.2	84	26.9	1	3	225	0.00	30.166 
23:50	31.2	31.2	31.2	84	26.9	1	3	225	0.00	30.166 
23:55	31.2	31.2	31.2	84	26.9	2	3	225	0.00	30.166 

CoCoRaHS
IN-AL-39
A2 Web Hosting
Creative Commons License
GoDaddy
search engine by freefind advanced

loaded 2018-11-14 03:51:58 • last modified 2010-11-18 10:43:29
Privacy PolicyDisclaimer
• wx.awcolley.com is powered by PmWiki v.2002016 •
• all content (unless otherwise noted) © 2018 A W Colley